Mentcle, Pennsylvania
Current Conditions -  °F | °C
As of 4:35 PM on Wednesday 17 Dec 2014 (Local Time) from KIDI Reporting Station
Overcast Overcast  
Wind Chill: 24°   Ceiling: 2800
Heat Index: 32°   Visibility: 10mi
Dew Point: 23°   Wind: 10mph
Humidity: 69%   Direction: 300°WNW
Pressure: 30.07"   Gusts: 21mph
Location:  40.64°N, 78.88°W
Report Text: KIDI 172135Z AUTO 30009G18KT 270V330 10SM OVC028 00/M05 A3007 RMK A01
Loading
Personal Weather Stations






























Interactive Weather Map New forecast layout! Learn more

10-Day Weather Forecast

Advertisements
Track Severe Weather on mobile